Aguilar, CO (81020)

6:31 PM MDT on August 27, 2016 (GMT -0600)
Vezzani's House | | Change Station

Elev 6417 ft 37.41 °N, 104.65 °W | Updated 4 seconds ago

Clear
Clear
73.3 °F
Feels Like 77 °F
N
2.0
Wind Variable Wind from WSW
Gusts 4.0 mph

Today
High -- | Low -- °F
--% Chance of Precip.
Yesterday
High -- | Low -- °F
Precip. -- in
Pressure 29.89 in
Visibility 10.0 miles
Clouds Clear
Heat Index 77 °F
Dew Point 48 °F
Humidity 40%
Rainfall 0.00 in
Snow Depth Not available.
6:25 AM 7:33 PM
Waning Crescent, 20% visible
METAR KTAD 272354Z AUTO 19014KT 10SM CLR 26/03 A3010 RMK AO2 SLP120 T02610033 10283 20244 55001
Pressure 29.89 in
Visibility 10.0 miles
Clouds Clear
Heat Index 77 °F
Dew Point 48 °F
Humidity 40%
Rainfall 0.00 in
Snow Depth Not available.
6:25 AM 7:33 PM
Waning Crescent, 20% visible
METAR KTAD 272354Z AUTO 19014KT 10SM CLR 26/03 A3010 RMK AO2 SLP120 T02610033 10283 20244 55001

10-Day Weather Forecast

Almanac

Astronomy

Aug. 27, 2016 Rise Set
Actual Time
Civil Twilight
Nautical Twilight
Astronomical Twilight
Moon
Length of Visible Light
Length of Day
Tomorrow will be .
, % of the Moon is Illuminated

Today's Extremes

State Highs State Lows

Community

WunderPhotos

Upload Photos

1,935,475 photos uploaded!

WunderBlog® & News

Nearby

Air Quality

  Air Quality AQ Index Pollutant
Not available.

Snow Depth

Station Depth Elevation

Earthquake Activity

City Distance Mag. Time & Date
Minimum magnitude displayed is 2.5.

Coastal Water Temperatures

Place Temperature

Stations

Nearby Weather Stations

Station Location Temp. Windchill Dew Point Humidity Wind Precip. Elev Updated Type
                   

Watches & Warnings

There are currently no watches in effect.